Time;durP1;ratioP1;P1;durP2;ratioP2;P2;SDS_P1;SDS_P2;PMS_P1;PMS_P2;Temp;Humidity;BMP_temperature;BMP_pressure;BME280_temperature;BME280_humidity;BME280_pressure;Samples;Min_cycle;Max_cycle;Signal;HPM_P1;HPM_P2
2021/12/11 00:01:11;;;;;;;20.80;8.35;;;5.80;96.30;;;;;;10486015;28;20028;-73
2021/12/11 00:06:14;;;;;;;15.60;8.73;;;5.80;96.30;;;;;;10479262;28;20391;-68
2021/12/11 00:11:21;;;;;;;15.18;8.32;;;5.70;96.30;;;;;;10486647;28;20045;-73
2021/12/11 00:16:23;;;;;;;15.77;8.77;;;5.70;96.30;;;;;;10485856;28;20029;-72
2021/12/11 00:21:26;;;;;;;17.50;8.13;;;5.70;96.30;;;;;;10486094;28;20029;-73
2021/12/11 00:26:29;;;;;;;16.85;8.43;;;5.70;96.30;;;;;;10485483;28;20013;-73
2021/12/11 00:31:31;;;;;;;15.38;8.07;;;5.70;96.20;;;;;;10485613;28;20048;-72
2021/12/11 00:36:32;;;;;;;15.68;7.53;;;5.80;96.30;;;;;;10485961;28;20439;-74
2021/12/11 00:41:33;;;;;;;13.15;7.70;;;5.80;96.20;;;;;;10485344;28;20034;-74
2021/12/11 00:46:34;;;;;;;11.57;7.30;;;5.70;96.20;;;;;;10486096;28;20119;-73
2021/12/11 00:51:35;;;;;;;14.00;7.35;;;5.70;96.10;;;;;;10497791;28;20067;-73
2021/12/11 00:56:38;;;;;;;13.98;7.07;;;5.70;96.10;;;;;;10514658;28;20127;-69
2021/12/11 01:01:57;;;;;;;16.02;7.65;;;5.60;96.10;;;;;;10512578;28;20032;-71
2021/12/11 01:07:00;;;;;;;;;;;5.60;96.00;;;;;;10512479;28;20439;-74
2021/12/11 01:12:20;;;;;;;14.82;6.90;;;5.60;95.60;;;;;;10492690;28;19959;-67
2021/12/11 01:17:39;;;;;;;14.00;7.43;;;5.60;95.90;;;;;;10491748;28;20364;-73
2021/12/11 01:22:40;;;;;;;13.82;7.38;;;5.60;95.90;;;;;;10491575;28;20107;-64
2021/12/11 01:27:45;;;;;;;12.63;7.13;;;5.60;96.00;;;;;;10491827;28;20082;-64
2021/12/11 01:32:46;;;;;;;12.38;6.63;;;5.60;96.00;;;;;;10491477;28;20040;-63
2021/12/11 01:37:49;;;;;;;11.90;6.55;;;5.60;96.00;;;;;;10492185;28;20364;-65
2021/12/11 01:42:50;;;;;;;14.38;6.63;;;5.50;95.90;;;;;;10491111;28;20383;-63
2021/12/11 01:47:50;;;;;;;11.35;5.97;;;5.50;95.90;;;;;;10490878;28;20029;-64
2021/12/11 01:53:00;;;;;;;13.38;7.35;;;5.50;95.90;;;;;;10490384;28;20040;-61
2021/12/11 01:58:03;;;;;;;;;;;5.50;95.90;;;;;;10483003;28;20080;-66
2021/12/11 02:03:10;;;;;;;12.07;6.82;;;5.50;95.40;;;;;;10490196;28;19908;-69
2021/12/11 02:08:14;;;;;;;15.80;7.00;;;5.40;95.80;;;;;;10490952;28;20094;-70
2021/12/11 02:13:24;;;;;;;12.35;6.82;;;5.40;95.80;;;;;;10488404;28;20032;-66
2021/12/11 02:18:34;;;;;;;11.95;7.65;;;5.40;95.80;;;;;;10476330;28;20470;-73
2021/12/11 02:23:35;;;;;;;12.85;6.85;;;5.40;96.10;;;;;;10489538;28;20440;-71
2021/12/11 02:28:59;;;;;;;14.15;7.30;;;5.40;95.80;;;;;;10489452;28;20100;-72
2021/12/11 02:34:27;;;;;;;12.40;7.10;;;5.40;95.60;;;;;;10488610;28;20482;-68
2021/12/11 02:39:32;;;;;;;12.18;6.93;;;5.60;95.60;;;;;;10477748;28;20506;-73
2021/12/11 02:44:45;;;;;;;12.20;6.97;;;5.40;95.80;;;;;;10486268;28;20390;-72
2021/12/11 02:49:55;;;;;;;14.10;7.15;;;5.40;95.70;;;;;;10479396;28;20462;-63
2021/12/11 02:55:15;;;;;;;;;;;5.40;95.70;;;;;;10488525;28;20098;-71
2021/12/11 03:00:34;;;;;;;12.95;6.50;;;5.30;95.20;;;;;;10487218;28;20342;-71
2021/12/11 03:06:04;;;;;;;15.90;7.20;;;5.30;95.80;;;;;;10487748;28;20029;-73
2021/12/11 03:11:09;;;;;;;12.63;6.45;;;5.30;95.60;;;;;;10480353;28;20082;-67
2021/12/11 03:16:10;;;;;;;13.38;6.68;;;5.30;95.70;;;;;;10487984;28;20021;-72
2021/12/11 03:21:11;;;;;;;11.88;6.57;;;5.30;95.60;;;;;;10487613;28;20138;-69
2021/12/11 03:26:11;;;;;;;11.90;6.45;;;5.20;95.60;;;;;;10487577;28;20032;-72
2021/12/11 03:31:13;;;;;;;10.60;5.93;;;5.20;95.60;;;;;;10487555;28;20131;-70
2021/12/11 03:36:21;;;;;;;10.65;5.88;;;5.20;95.50;;;;;;10487435;28;20021;-70
2021/12/11 03:41:23;;;;;;;9.77;6.32;;;5.20;95.50;;;;;;10486812;28;20372;-69
2021/12/11 03:46:24;;;;;;;12.27;6.47;;;5.30;95.50;;;;;;10487174;28;20031;-71
2021/12/11 03:51:30;;;;;;;12.60;6.45;;;5.30;95.50;;;;;;10487099;28;20032;-69
2021/12/11 03:56:32;;;;;;;13.07;6.03;;;5.20;95.50;;;;;;10487052;28;20556;-72
2021/12/11 04:01:35;;;;;;;11.60;5.78;;;5.20;95.50;;;;;;10486086;28;20027;-71
2021/12/11 04:06:35;;;;;;;12.05;5.82;;;5.10;95.40;;;;;;10468579;28;20025;-73
2021/12/11 04:11:37;;;;;;;10.88;5.65;;;5.10;95.40;;;;;;10486317;28;20036;-73
2021/12/11 04:16:41;;;;;;;11.27;5.93;;;5.10;95.40;;;;;;10485680;28;20185;-73
2021/12/11 04:21:43;;;;;;;10.80;6.00;;;5.10;95.40;;;;;;10486177;28;20027;-69
2021/12/11 04:26:45;;;;;;;10.65;5.45;;;5.10;95.40;;;;;;10486009;28;20099;-73
2021/12/11 04:31:47;;;;;;;8.73;5.38;;;5.10;95.40;;;;;;10485666;28;20033;-73
2021/12/11 04:37:02;;;;;;;14.88;6.40;;;5.10;95.40;;;;;;10482396;28;20074;-71
2021/12/11 04:42:14;;;;;;;9.80;5.95;;;5.10;95.30;;;;;;10492908;28;20024;-71
2021/12/11 04:47:35;;;;;;;11.70;6.15;;;5.10;95.30;;;;;;10493142;28;20028;-66
2021/12/11 05:13:14;;;;;;;12.27;6.50;;;5.00;95.20;;;;;;10492546;28;20055;-74
2021/12/11 05:18:18;;;;;;;10.50;5.78;;;5.00;95.20;;;;;;10494465;28;20393;-72
2021/12/11 05:23:23;;;;;;;14.10;7.25;;;5.00;95.20;;;;;;10493484;28;20497;-68
2021/12/11 05:28:24;;;;;;;11.57;5.93;;;4.90;95.20;;;;;;10494367;28;20028;-73
2021/12/11 05:33:25;;;;;;;11.82;6.10;;;4.90;95.20;;;;;;10496701;28;20075;-71
2021/12/11 05:38:29;;;;;;;11.95;6.10;;;4.90;95.20;;;;;;10514515;28;20021;-70
2021/12/11 05:43:31;;;;;;;15.48;6.97;;;5.20;95.20;;;;;;10485109;28;20021;-73
2021/12/11 05:48:33;;;;;;;16.70;6.95;;;4.90;95.20;;;;;;10490304;28;20012;-64
2021/12/11 05:53:34;;;;;;;13.57;6.40;;;4.80;95.10;;;;;;10490627;28;20043;-68
2021/12/11 05:59:20;;;;;;;10.98;5.80;;;5.00;95.10;;;;;;10490594;28;20151;-65
2021/12/11 06:03:58;;;;;;;13.35;6.07;;;4.90;95.10;;;;;;10475858;28;20135;-63
2021/12/11 06:08:59;;;;;;;13.00;6.22;;;4.80;95.10;;;;;;10490411;28;20020;-71
2021/12/11 06:14:00;;;;;;;14.13;6.15;;;4.80;95.10;;;;;;10491691;28;20039;-69
2021/12/11 06:19:05;;;;;;;11.35;5.93;;;4.80;95.10;;;;;;10491154;28;20605;-69
2021/12/11 06:24:06;;;;;;;12.10;6.55;;;4.80;95.10;;;;;;10490421;28;20116;-73
2021/12/11 06:29:07;;;;;;;11.05;6.18;;;4.80;95.10;;;;;;10484237;28;20025;-63
2021/12/11 06:34:07;;;;;;;11.02;5.95;;;4.80;95.00;;;;;;10485129;28;20043;-71
2021/12/11 06:39:13;;;;;;;10.70;6.07;;;4.80;95.00;;;;;;10489507;28;20478;-71
2021/12/11 06:44:14;;;;;;;13.32;6.32;;;4.80;95.00;;;;;;10488934;28;20029;-72
2021/12/11 06:49:14;;;;;;;10.18;5.88;;;4.80;95.00;;;;;;10480504;28;20490;-68
2021/12/11 06:54:15;;;;;;;13.30;5.90;;;4.70;94.90;;;;;;10488433;28;20052;-74
2021/12/11 06:59:16;;;;;;;11.50;6.25;;;4.70;94.90;;;;;;10488163;28;20090;-72
2021/12/11 07:04:17;;;;;;;13.20;6.40;;;4.80;95.00;;;;;;10488670;28;20136;-73
2021/12/11 07:09:19;;;;;;;9.57;6.22;;;4.70;95.00;;;;;;10485911;28;20111;-69
2021/12/11 07:14:23;;;;;;;12.13;7.00;;;4.70;95.00;;;;;;10487109;28;20040;-68
2021/12/11 07:19:24;;;;;;;12.40;6.25;;;4.70;95.00;;;;;;10486853;28;20028;-67
2021/12/11 07:24:32;;;;;;;14.52;6.68;;;4.70;95.00;;;;;;10485149;28;20028;-63
2021/12/11 07:29:34;;;;;;;12.10;6.93;;;4.70;95.00;;;;;;10480177;28;20478;-68
2021/12/11 07:34:35;;;;;;;12.63;6.40;;;4.70;94.90;;;;;;10480567;28;20047;-72
2021/12/11 07:39:36;;;;;;;13.15;6.40;;;4.70;94.90;;;;;;10484288;28;20023;-76
2021/12/11 07:44:37;;;;;;;15.70;6.65;;;4.70;94.90;;;;;;10481663;28;20041;-67
2021/12/11 07:49:38;;;;;;;12.93;6.65;;;4.70;94.90;;;;;;10475274;28;20036;-66
2021/12/11 07:54:39;;;;;;;13.23;6.50;;;4.70;94.90;;;;;;10479103;28;20045;-66
2021/12/11 07:59:40;;;;;;;10.85;6.22;;;5.00;94.90;;;;;;10487303;28;20470;-69
2021/12/11 08:04:41;;;;;;;15.40;7.25;;;4.70;94.80;;;;;;10470171;28;20032;-63
2021/12/11 08:09:42;;;;;;;11.90;6.82;;;4.70;94.80;;;;;;10481907;28;20060;-73
2021/12/11 08:14:44;;;;;;;15.10;7.20;;;4.70;94.80;;;;;;10468959;28;20048;-76
2021/12/11 08:19:45;;;;;;;13.05;6.68;;;4.70;94.80;;;;;;10494102;28;20056;-65
2021/12/11 08:24:46;;;;;;;13.73;7.13;;;4.70;94.70;;;;;;10473069;28;20063;-73
2021/12/11 08:29:49;;;;;;;15.05;7.32;;;4.70;94.70;;;;;;10491048;28;20108;-69
2021/12/11 08:34:51;;;;;;;14.55;7.47;;;4.70;94.70;;;;;;10489105;28;20028;-76
2021/12/11 08:39:53;;;;;;;13.70;7.25;;;5.60;94.90;;;;;;10493976;28;20398;-75
2021/12/11 08:45:05;;;;;;;11.75;6.70;;;4.70;94.70;;;;;;10492846;28;20569;-75
2021/12/11 08:50:09;;;;;;;15.45;7.90;;;4.70;94.60;;;;;;10479713;28;20052;-70
2021/12/11 08:55:16;;;;;;;15.48;7.55;;;4.70;94.60;;;;;;10475181;28;20057;-74
2021/12/11 09:00:37;;;;;;;13.70;7.03;;;4.70;94.60;;;;;;10490392;28;20487;-70
2021/12/11 09:06:07;;;;;;;16.50;7.38;;;4.80;94.60;;;;;;10441174;28;20036;-64
2021/12/11 09:11:13;;;;;;;14.63;7.38;;;4.80;94.40;;;;;;10483865;28;20379;-70
2021/12/11 09:16:38;;;;;;;13.23;7.65;;;4.80;94.50;;;;;;10488114;28;20021;-75
2021/12/11 09:21:42;;;;;;;14.60;8.13;;;4.80;94.40;;;;;;10487857;28;20025;-73
2021/12/11 09:27:15;;;;;;;13.50;7.93;;;4.80;94.50;;;;;;10487965;28;20017;-70
2021/12/11 09:32:37;;;;;;;18.35;9.25;;;4.90;94.40;;;;;;10481805;28;20114;-76
2021/12/11 09:37:40;;;;;;;20.02;9.27;;;4.90;94.50;;;;;;10485785;28;20048;-64
2021/12/11 09:42:40;;;;;;;18.27;9.55;;;4.90;94.60;;;;;;10488209;28;20090;-67
2021/12/11 09:47:50;;;;;;;23.38;9.65;;;4.90;94.80;;;;;;10486923;28;20039;-61
2021/12/11 09:52:52;;;;;;;20.63;9.98;;;5.00;94.80;;;;;;10485838;28;20028;-62
2021/12/11 09:57:58;;;;;;;22.55;10.65;;;4.90;94.80;;;;;;10441459;28;1330380;-69
2021/12/11 10:03:00;;;;;;;22.88;9.93;;;5.00;94.80;;;;;;10485090;28;20020;-71
2021/12/11 10:13:26;;;;;;;25.52;11.10;;;5.00;94.70;;;;;;10486294;28;20082;-69
2021/12/11 10:18:30;;;;;;;19.50;10.10;;;5.10;94.70;;;;;;10490874;28;20047;-65
2021/12/11 10:23:33;;;;;;;18.98;10.05;;;5.30;94.70;;;;;;10469509;28;20020;-67
2021/12/11 10:28:34;;;;;;;21.30;9.55;;;5.20;94.70;;;;;;10488114;28;20025;-68
2021/12/11 10:33:35;;;;;;;22.05;11.52;;;5.20;94.60;;;;;;10478383;28;20036;-67
2021/12/11 10:38:38;;;;;;;23.90;10.23;;;5.30;94.60;;;;;;10487721;28;20055;-70
2021/12/11 10:43:53;;;;;;;20.05;10.88;;;5.40;94.60;;;;;;10487269;28;20315;-65
2021/12/11 10:48:54;;;;;;;18.25;9.88;;;5.40;94.60;;;;;;10486580;28;20069;-75
2021/12/11 10:53:57;;;;;;;18.73;10.13;;;5.50;94.60;;;;;;10486889;28;20052;-70
2021/12/11 10:59:03;;;;;;;23.23;11.43;;;5.60;94.60;;;;;;10486572;28;20044;-68
2021/12/11 11:04:11;;;;;;;19.80;10.25;;;5.60;94.60;;;;;;10486330;28;20310;-69
2021/12/11 11:09:14;;;;;;;20.90;10.03;;;5.70;94.60;;;;;;10478548;28;20406;-67
2021/12/11 11:14:17;;;;;;;19.33;10.70;;;5.70;94.60;;;;;;10486077;28;20178;-67
2021/12/11 11:19:24;;;;;;;21.20;9.88;;;5.80;94.60;;;;;;10485844;28;20391;-69
2021/12/11 11:24:29;;;;;;;19.70;10.38;;;5.80;94.60;;;;;;10485974;28;20390;-68
2021/12/11 11:29:30;;;;;;;21.20;10.00;;;5.90;94.60;;;;;;10485458;28;20502;-71
2021/12/11 11:34:31;;;;;;;21.17;10.18;;;5.90;94.60;;;;;;10485455;28;20032;-70
2021/12/11 11:39:32;;;;;;;19.83;9.73;;;6.00;94.60;;;;;;10485498;28;20024;-66
2021/12/11 11:44:33;;;;;;;18.05;9.55;;;5.90;94.70;;;;;;10485237;28;20623;-68
2021/12/11 11:49:35;;;;;;;20.83;10.10;;;5.90;94.70;;;;;;10485719;28;20518;-71
2021/12/11 11:54:40;;;;;;;21.52;10.70;;;5.90;94.70;;;;;;10484768;28;20056;-74
2021/12/11 11:59:42;;;;;;;20.90;10.73;;;5.90;94.80;;;;;;10485213;28;20082;-71
2021/12/11 12:04:44;;;;;;;21.42;9.48;;;6.00;94.90;;;;;;10485272;28;20438;-68
2021/12/11 12:09:48;;;;;;;25.23;11.25;;;5.90;94.90;;;;;;10484697;28;20103;-67
2021/12/11 12:14:51;;;;;;;21.17;10.20;;;5.90;94.90;;;;;;10484813;28;20545;-67
2021/12/11 12:19:53;;;;;;;18.98;9.45;;;5.90;95.00;;;;;;10484595;28;20100;-71
2021/12/11 12:24:57;;;;;;;22.55;10.45;;;5.90;95.00;;;;;;10484472;28;20115;-69
2021/12/11 12:29:58;;;;;;;20.08;9.20;;;5.90;95.00;;;;;;10484552;28;20021;-68
2021/12/11 12:35:03;;;;;;;21.90;9.85;;;5.90;95.10;;;;;;10484120;28;20052;-67
2021/12/11 12:40:08;;;;;;;17.45;8.82;;;5.90;95.10;;;;;;10471838;28;20467;-68
2021/12/11 12:45:13;;;;;;;19.02;9.52;;;5.90;95.10;;;;;;10483891;28;20115;-66
2021/12/11 12:50:18;;;;;;;22.17;9.80;;;5.90;95.10;;;;;;10484441;28;20471;-67
2021/12/11 12:55:25;;;;;;;20.27;9.07;;;6.00;95.20;;;;;;10485380;28;20056;-66
2021/12/11 13:00:40;;;;;;;20.42;10.02;;;5.90;95.20;;;;;;10491807;28;20462;-65
2021/12/11 13:05:52;;;;;;;20.50;9.93;;;6.00;95.20;;;;;;10490610;28;20020;-71
2021/12/11 13:10:57;;;;;;;21.50;9.52;;;5.90;95.20;;;;;;10457855;28;20027;-69
2021/12/11 13:16:06;;;;;;;24.75;11.55;;;6.00;95.30;;;;;;10491051;28;20074;-63
2021/12/11 13:21:13;;;;;;;26.90;12.48;;;5.80;95.90;;;;;;10490525;28;20028;-63
2021/12/11 13:26:19;;;;;;;23.27;11.10;;;6.70;96.80;;;;;;10475007;28;20024;-66
2021/12/11 13:31:28;;;;;;;28.92;11.65;;;5.60;96.70;;;;;;10479133;28;20037;-66
2021/12/11 13:36:28;;;;;;;18.50;9.97;;;5.70;96.70;;;;;;10490287;28;20028;-74
2021/12/11 13:41:38;;;;;;;28.25;11.75;;;5.90;96.80;;;;;;10484120;28;20338;-69
2021/12/11 13:46:40;;;;;;;21.42;11.52;;;5.80;96.50;;;;;;10489990;28;20348;-73
2021/12/11 13:51:44;;;;;;;23.58;11.55;;;5.80;96.50;;;;;;10489704;28;20116;-72
2021/12/11 13:56:57;;;;;;;34.42;11.95;;;5.80;96.50;;;;;;10489374;28;20106;-72
2021/12/11 14:01:59;;;;;;;21.48;10.20;;;5.80;96.60;;;;;;10486414;28;20089;-64
2021/12/11 14:07:14;;;;;;;22.67;10.88;;;5.80;96.50;;;;;;10487957;28;20344;-60
2021/12/11 14:12:15;;;;;;;22.77;11.02;;;5.90;96.50;;;;;;10490105;28;20025;-66
2021/12/11 14:17:17;;;;;;;23.08;10.68;;;5.90;96.50;;;;;;10488915;28;20045;-61
2021/12/11 14:22:20;;;;;;;21.60;10.40;;;5.90;96.40;;;;;;10487994;28;20060;-61
2021/12/11 14:27:21;;;;;;;20.55;10.27;;;5.80;96.40;;;;;;10488386;28;20487;-75
2021/12/11 14:32:25;;;;;;;19.77;9.70;;;5.80;96.40;;;;;;10487897;28;20034;-69
2021/12/11 14:37:27;;;;;;;19.85;9.60;;;5.90;96.40;;;;;;10487850;28;20402;-66
2021/12/11 14:42:28;;;;;;;25.70;10.43;;;5.80;96.50;;;;;;10477054;28;20102;-70
2021/12/11 14:47:29;;;;;;;21.17;10.35;;;5.70;96.60;;;;;;10487319;28;20096;-65
2021/12/11 14:52:31;;;;;;;21.55;9.15;;;5.30;97.20;;;;;;10481168;28;20581;-67
2021/12/11 14:57:35;;;;;;;23.52;10.07;;;5.30;97.50;;;;;;10487361;28;20133;-70
2021/12/11 15:02:39;;;;;;;18.85;9.35;;;5.40;97.40;;;;;;10487160;28;20067;-64
2021/12/11 15:07:40;;;;;;;19.15;8.85;;;5.40;97.30;;;;;;10480094;28;20017;-68
2021/12/11 15:12:41;;;;;;;17.88;9.70;;;5.40;97.30;;;;;;10486646;28;20040;-65
2021/12/11 15:17:43;;;;;;;18.85;8.60;;;5.50;97.20;;;;;;10475438;28;20024;-62
2021/12/11 15:22:44;;;;;;;18.10;8.50;;;5.50;97.20;;;;;;10485897;28;20490;-63
2021/12/11 15:27:46;;;;;;;19.20;9.38;;;5.50;97.10;;;;;;10485977;28;20028;-65
2021/12/11 15:32:50;;;;;;;17.98;8.45;;;5.50;97.10;;;;;;10446440;28;20025;-66
2021/12/11 15:37:51;;;;;;;16.35;8.50;;;5.50;97.10;;;;;;10485365;28;20475;-67
2021/12/11 15:42:52;;;;;;;16.95;8.30;;;5.50;97.10;;;;;;10484339;28;20036;-65
2021/12/11 15:47:54;;;;;;;17.77;8.48;;;5.50;97.00;;;;;;10484200;28;20020;-62
2021/12/11 15:52:56;;;;;;;19.88;9.10;;;5.60;97.00;;;;;;10477097;28;20044;-69
2021/12/11 15:57:59;;;;;;;18.35;8.85;;;5.60;97.00;;;;;;10484650;28;20460;-71
2021/12/11 16:03:00;;;;;;;14.23;7.97;;;5.60;97.00;;;;;;10484519;28;20336;-64
2021/12/11 16:08:02;;;;;;;17.83;7.82;;;5.60;96.90;;;;;;10473914;28;20029;-68
2021/12/11 16:13:03;;;;;;;16.00;8.13;;;5.50;96.90;;;;;;10468798;28;20080;-61
2021/12/11 16:18:04;;;;;;;17.90;8.50;;;5.60;96.90;;;;;;10477737;28;20036;-72
2021/12/11 16:23:05;;;;;;;15.55;7.35;;;5.60;97.20;;;;;;10452183;28;20673;-71
2021/12/11 16:28:09;;;;;;;17.63;8.63;;;5.50;96.90;;;;;;10458857;28;20385;-69
2021/12/11 16:33:11;;;;;;;21.25;9.25;;;5.50;97.00;;;;;;10452988;28;21309;-63
2021/12/11 16:38:22;;;;;;;27.77;11.98;;;5.50;97.00;;;;;;10459937;28;20152;-63
2021/12/11 16:43:23;;;;;;;27.63;10.77;;;5.50;97.20;;;;;;10456265;28;20518;-70
2021/12/11 16:48:31;;;;;;;23.70;10.85;;;5.50;97.10;;;;;;10463682;28;20041;-71
2021/12/11 16:53:35;;;;;;;23.23;10.27;;;5.50;97.30;;;;;;10483192;28;20060;-65
2021/12/11 16:58:39;;;;;;;20.38;9.73;;;5.50;97.30;;;;;;10483721;28;20040;-63
2021/12/11 17:03:41;;;;;;;19.73;8.98;;;5.50;97.50;;;;;;10467927;28;20391;-67
2021/12/11 17:08:43;;;;;;;19.27;8.60;;;5.50;97.30;;;;;;10491666;28;20029;-71
2021/12/11 17:13:44;;;;;;;16.85;7.88;;;5.50;97.30;;;;;;10487366;28;20105;-66
2021/12/11 17:18:45;;;;;;;18.90;8.63;;;5.50;97.30;;;;;;10480972;28;20467;-75
2021/12/11 17:23:47;;;;;;;16.55;7.97;;;5.50;97.20;;;;;;10462886;28;20020;-75
2021/12/11 17:28:56;;;;;;;15.32;7.70;;;5.50;97.30;;;;;;10483667;28;20028;-67
2021/12/11 17:33:56;;;;;;;16.75;7.97;;;5.50;97.40;;;;;;10479753;28;20033;-68
2021/12/11 17:38:58;;;;;;;16.52;7.43;;;5.60;97.50;;;;;;10490797;28;20482;-62
2021/12/11 17:44:00;;;;;;;16.05;7.72;;;5.60;97.40;;;;;;10489203;28;20021;-61
2021/12/11 17:49:02;;;;;;;17.05;7.65;;;5.60;97.40;;;;;;10491025;28;20121;-70
2021/12/11 17:54:05;;;;;;;14.73;7.38;;;5.70;97.40;;;;;;10489170;28;20037;-71
2021/12/11 17:59:06;;;;;;;14.45;7.13;;;5.60;97.40;;;;;;10465452;28;20056;-65
2021/12/11 18:04:36;;;;;;;15.68;6.88;;;5.60;97.30;;;;;;10477339;28;20059;-64
2021/12/11 18:09:40;;;;;;;16.52;8.15;;;5.60;97.50;;;;;;10446584;28;20044;-71
2021/12/11 18:14:52;;;;;;;12.20;6.90;;;5.70;97.60;;;;;;10487101;28;20048;-67
2021/12/11 18:20:15;;;;;;;13.85;6.95;;;5.90;97.90;;;;;;10487183;28;20024;-68
2021/12/11 18:25:19;;;;;;;17.77;6.80;;;6.10;97.90;;;;;;10458121;28;20024;-64
2021/12/11 18:30:28;;;;;;;15.43;7.80;;;6.10;97.60;;;;;;10458438;28;20024;-67
2021/12/11 18:35:35;;;;;;;14.10;7.18;;;6.30;97.70;;;;;;10456486;28;20120;-66
2021/12/11 18:40:43;;;;;;;13.02;7.20;;;6.00;97.60;;;;;;10468608;28;20102;-62
2021/12/11 18:45:51;;;;;;;14.50;6.85;;;6.00;97.70;;;;;;10486092;28;20378;-64
2021/12/11 18:50:56;;;;;;;12.90;6.68;;;6.20;97.80;;;;;;10483723;28;20082;-68
2021/12/11 18:55:59;;;;;;;12.25;5.50;;;6.00;97.90;;;;;;10460555;28;20091;-63
2021/12/11 19:01:03;;;;;;;14.98;7.18;;;6.00;97.80;;;;;;10464889;28;20013;-66
2021/12/11 19:06:10;;;;;;;15.05;7.10;;;6.00;97.80;;;;;;10460184;28;20036;-64
2021/12/11 19:11:22;;;;;;;15.10;7.75;;;5.90;97.80;;;;;;10462745;28;20033;-69
2021/12/11 19:16:23;;;;;;;13.43;7.20;;;5.90;97.80;;;;;;10473707;28;20031;-67
2021/12/11 19:21:27;;;;;;;13.65;6.68;;;6.00;97.80;;;;;;10468345;28;20040;-68
2021/12/11 19:26:28;;;;;;;14.63;6.57;;;6.20;97.90;;;;;;10460216;28;20090;-70
2021/12/11 19:31:33;;;;;;;13.77;7.15;;;5.90;97.90;;;;;;10452190;28;20060;-68
2021/12/11 19:36:38;;;;;;;13.45;6.70;;;5.90;97.80;;;;;;10458097;28;20035;-64
2021/12/11 19:41:39;;;;;;;13.10;6.93;;;5.90;97.80;;;;;;10461891;28;20021;-62
2021/12/11 19:46:40;;;;;;;12.65;6.18;;;6.20;97.90;;;;;;10458387;28;20623;-66
2021/12/11 19:51:45;;;;;;;12.80;6.60;;;6.20;97.90;;;;;;10464736;28;20715;-66
2021/12/11 19:56:48;;;;;;;12.45;6.43;;;5.80;97.80;;;;;;10452301;28;20045;-76
2021/12/11 20:01:51;;;;;;;13.07;6.40;;;5.80;97.80;;;;;;10467166;28;20100;-63
2021/12/11 20:06:56;;;;;;;12.20;6.15;;;5.90;97.80;;;;;;10458285;28;20016;-73
2021/12/11 20:12:06;;;;;;;13.38;6.78;;;5.80;97.80;;;;;;10467146;28;20078;-64
2021/12/11 20:17:08;;;;;;;12.57;5.97;;;5.90;97.80;;;;;;10470766;28;20016;-62
2021/12/11 20:22:15;;;;;;;13.60;6.50;;;5.80;97.80;;;;;;10472539;28;20106;-63
2021/12/11 20:27:18;;;;;;;12.60;6.82;;;5.90;97.80;;;;;;10466494;28;20100;-63
2021/12/11 20:32:22;;;;;;;13.85;6.07;;;5.90;97.80;;;;;;10460320;28;20175;-69
2021/12/11 20:37:27;;;;;;;13.43;6.25;;;5.90;97.80;;;;;;10477112;28;20363;-63
2021/12/11 20:42:29;;;;;;;14.95;6.55;;;5.90;97.80;;;;;;10489758;28;20024;-63
2021/12/11 20:47:32;;;;;;;11.95;6.10;;;5.90;97.80;;;;;;10488924;28;20577;-73
2021/12/11 20:52:33;;;;;;;13.90;6.75;;;5.90;97.80;;;;;;10467206;28;20543;-73
2021/12/11 20:57:34;;;;;;;13.50;6.65;;;5.90;97.80;;;;;;10461473;28;20086;-66
2021/12/11 21:02:35;;;;;;;11.48;5.93;;;5.90;97.80;;;;;;10483132;28;20437;-72
2021/12/11 21:07:43;;;;;;;14.55;6.68;;;5.90;97.90;;;;;;10487804;28;20029;-74
2021/12/11 21:12:49;;;;;;;13.48;6.72;;;5.90;97.90;;;;;;10481908;28;20037;-76
2021/12/11 21:17:52;;;;;;;13.45;6.28;;;5.90;97.90;;;;;;10465505;28;20163;-64
2021/12/11 21:22:56;;;;;;;13.20;6.63;;;5.90;97.90;;;;;;10480527;28;20048;-66
2021/12/11 21:27:59;;;;;;;16.83;6.60;;;5.90;97.90;;;;;;10483761;28;20032;-68
2021/12/11 21:33:03;;;;;;;11.50;6.18;;;5.90;97.90;;;;;;10487946;28;20172;-73
2021/12/11 21:38:05;;;;;;;15.52;7.50;;;5.90;97.90;;;;;;10481123;28;20060;-72
2021/12/11 21:43:13;;;;;;;11.45;6.38;;;5.90;97.90;;;;;;10479812;28;20470;-67
2021/12/11 21:48:22;;;;;;;18.30;6.45;;;6.10;98.00;;;;;;10484366;28;20021;-73
2021/12/11 21:53:27;;;;;;;16.30;7.07;;;5.90;97.90;;;;;;10484729;28;20295;-72
2021/12/11 21:58:34;;;;;;;14.13;6.93;;;5.90;97.90;;;;;;10481055;28;20080;-65
2021/12/11 22:03:40;;;;;;;13.63;6.35;;;6.00;97.90;;;;;;10487481;28;20077;-62
2021/12/11 22:08:45;;;;;;;13.18;6.50;;;5.90;97.90;;;;;;10486606;28;20016;-75
2021/12/11 22:13:46;;;;;;;14.30;6.65;;;6.00;98.00;;;;;;10487141;28;20025;-74
2021/12/11 22:18:47;;;;;;;11.23;6.20;;;5.90;97.90;;;;;;10486620;28;20084;-66
2021/12/11 22:23:49;;;;;;;13.68;7.30;;;6.00;98.00;;;;;;10485882;28;20443;-64
2021/12/11 22:28:56;;;;;;;12.55;7.22;;;6.00;98.20;;;;;;10485065;28;20727;-67
2021/12/11 22:33:59;;;;;;;12.25;6.60;;;6.00;98.00;;;;;;10481589;28;20501;-72
2021/12/11 22:39:03;;;;;;;15.93;7.00;;;6.00;97.90;;;;;;10485650;28;20033;-67
2021/12/11 22:44:17;;;;;;;16.30;7.40;;;6.00;98.00;;;;;;10484248;28;20040;-70
2021/12/11 22:49:19;;;;;;;12.90;6.93;;;6.00;98.00;;;;;;10480961;28;20034;-73
2021/12/11 22:54:24;;;;;;;19.08;7.18;;;6.00;98.00;;;;;;10483433;28;20081;-69
2021/12/11 22:59:27;;;;;;;14.68;6.90;;;6.00;98.00;;;;;;10477490;28;20608;-62
2021/12/11 23:04:31;;;;;;;14.60;7.15;;;6.00;98.00;;;;;;10483233;28;20086;-63
2021/12/11 23:09:41;;;;;;;14.20;7.10;;;6.00;98.00;;;;;;10481922;28;20021;-68
2021/12/11 23:14:51;;;;;;;16.40;8.07;;;6.00;98.00;;;;;;10456356;28;20037;-74
2021/12/11 23:19:57;;;;;;;16.80;8.57;;;6.00;98.00;;;;;;10455640;28;20096;-71
2021/12/11 23:25:18;;;;;;;18.75;8.50;;;6.00;98.00;;;;;;10459758;28;20073;-68
2021/12/11 23:30:27;;;;;;;14.20;8.05;;;6.00;98.10;;;;;;10458896;28;20108;-66
2021/12/11 23:35:28;;;;;;;17.63;7.72;;;6.00;98.10;;;;;;10464122;28;20406;-63
2021/12/11 23:40:35;;;;;;;15.38;7.70;;;6.00;98.10;;;;;;10476404;28;20964;-66
2021/12/11 23:45:46;;;;;;;16.80;8.32;;;6.10;98.10;;;;;;10480876;28;20575;-64
2021/12/11 23:51:15;;;;;;;17.90;7.63;;;6.10;98.10;;;;;;10484986;28;20039;-66
2021/12/11 23:56:20;;;;;;;17.92;8.30;;;6.10;98.20;;;;;;10474848;28;20040;-63
